Carlton, AL

11:11 PM CDT on May 24, 2015 (GMT -0500)
Mobile Regional | | Change Station
CLOSE
Current Station
Airport
Location: Mobile,
Elevation: 220 ft
Nearby Weather Stations

Elev 220 ft 30.69 °N, 88.25 °W | Updated 15 minutes ago

Partly Cloudy
Partly Cloudy
77 °F
Feels Like 77 °F
N
18
Wind Variable Wind from SE
Gusts 24 mph

Today
High -- | Low -- °F
--% Chance of Precip.
Yesterday
High -- | Low -- °F
Precip. -- in
5:50 AM 7:46 PM
Waxing Crescent, 45% visible
Pressure 30.11 in
Visibility 8.0 miles
Clouds Scattered Clouds 1900 ft
Mostly Cloudy 2500 ft
Mostly Cloudy 3200 ft
Dew Point 74 °F
Humidity 90%
Rainfall 0.44 in
Snow Depth Not available.
UV 0 out of 12
Pollen 4.50 out of 12
Air Quality Not available.
Flu Activity Sporadic
METAR KMOB 250356Z 14016G21KT 8SM SCT019 BKN025 BKN032 25/23 A3012 RMK AO2 RAB32E45 SLP194 P0000 T02500233 $

More Conditions Fewer Conditions

Pressure 30.11 in
Visibility 8.0 miles
Clouds Scattered Clouds 1900 ft
Mostly Cloudy 2500 ft
Mostly Cloudy 3200 ft
Dew Point 74 °F
Humidity 90%
Rainfall 0.44 in
Snow Depth Not available.
UV 0 out of 12
Pollen 4.50 out of 12
Air Quality Not available.
Flu Activity Sporadic
METAR KMOB 250356Z 14016G21KT 8SM SCT019 BKN025 BKN032 25/23 A3012 RMK AO2 RAB32E45 SLP194 P0000 T02500233 $

More Conditions Fewer Conditions

10-Day Weather Forecast

Almanac

Astronomy

May. 24, 2015 Rise Set
Actual Time
Civil Twilight
Nautical Twilight
Astronomical Twilight
Moon
Length of Visible Light
Length of Day
Tomorrow will be .
, % of the Moon is Illuminated

Today's Extremes

State Highs State Lows

Community

WunderPhotos

Upload Photos

1,823,952 photos uploaded!

WunderBlogs® & News

Nearby

Air Quality

  Air Quality AQ Index Pollutant
Not available.

Snow Depth

Station Depth Elevation

Earthquake Activity

City Distance Mag. Time & Date
Minimum magnitude displayed is 2.5.

Coastal Water Temperatures

Place Temperature

Stations

Nearby Weather Stations

Station Location Temp. Windchill Dew Point Humidity Wind Precip. Elev Updated Type